Terminal Aerodrome Forecast
Issued by NWS Jackson, KY

Home | Current Version | Previous Version | Text Only | Print | Product List | Glossary Off
Versions: 1 2 3 4 5 6 7 8 9 10 11 12

647
FTUS43 KJKL 290520
TAFLOZ
TAF
KLOZ 290520Z 2906/3006 17006KT P6SM FEW150 BKN200 WS020/20035KT
     FM291100 19008KT P6SM SCT250
     FM291400 20012G18KT P6SM FEW060 SCT250
     FM292300 18006KT P6SM SKC=

USA.gov is the U.S. government's official web portal to all federal, state and local government web resources and services.